Accueil
METAR-TAF:

METAR-TAF

Aéroports :

Koror, Babeldaob, Palaos

Aéroport international Roman-Tmetuchl

latitude: 07-22N, longitude: 134-32E, altitude: 54 m

Observation

Le bulletin a été fait il y a 56 minutes, à 02:55 UTC
Vent 12 kt de nord-est avec des rafales jusqu'à 16 kt
Température 31°C
Humidité 63%
Pression 1008 hPa
Visibilité: 24.1 km
Quelques nuages à une hauteur de 1000 ft
Nuages épars à une hauteur de 1700 ft
Nuages fragmentés à une hauteur de 12000 ft
Nuages fragmentés à une hauteur de 30000 ft

METAR: PTRO 230255Z 05012G16KT 15SM FEW010 SCT017 BKN120 BKN300 31/23 A2976

Heure: 12:51 (03:51 UTC)

Prévision

Le bulletin a été fait il y a 4 heures et 25 minutes, à 23:26 UTC
Prévision valable du 23 à 00 UTC au 23 à 24 UTC
Vent 9 kt de nord-est
Visibilité: 10 km
Quelques nuages à une hauteur de 1600 ft
Nuages épars à une hauteur de 12000 ft
averses à proximité

TAF: PTRO 222326Z 2300/2324 05009KT P6SM VCSH FEW016 SCT120

Observations et prévisions météorologiques de plus de 4000 aéroports (messages METAR et TAF).

Les stations disponibles sont représentées par des disques jaunes et rouges sur la carte.

Passer la souris dessus pour voir le nom de la station.

Cliquer dessus pour voir les observations et prévisions météorologiques.

Pour changer de carte: cliquez sur les boutons verts avec une croix noire pour zoomer, sur le bouton vert avec un tiret pour effectuer un zoom arrière, ou sur les flèches vertes pour les cartes adjacentes.


METAR-TAF: